Time;durP1;ratioP1;P1;durP2;ratioP2;P2;SDS_P1;SDS_P2;PMS_P1;PMS_P2;Temp;Humidity;BMP_temperature;BMP_pressure;BME280_temperature;BME280_humidity;BME280_pressure;Samples;Min_cycle;Max_cycle;Signal;HPM_P1;HPM_P2
2021/09/19 00:02:23;;;;;;;8.73;4.35;;;14.80;99.90;;;;;;6303457;22;20000;-80
2021/09/19 00:04:48;;;;;;;5.15;4.40;;;14.80;99.90;;;;;;6304240;22;20007;-79
2021/09/19 00:07:14;;;;;;;5.20;4.68;;;14.80;99.90;;;;;;6304341;22;20398;-79
2021/09/19 00:09:39;;;;;;;8.98;4.55;;;14.90;99.90;;;;;;6303056;22;20007;-80
2021/09/19 00:12:05;;;;;;;5.78;4.50;;;14.90;99.90;;;;;;6303718;22;20440;-79
2021/09/19 00:14:34;;;;;;;5.25;4.50;;;14.90;99.90;;;;;;6304170;22;20004;-79
2021/09/19 00:17:00;;;;;;;8.40;4.70;;;14.90;99.90;;;;;;6303909;22;20057;-80
2021/09/19 00:19:25;;;;;;;7.20;4.55;;;14.90;99.90;;;;;;6302817;22;20364;-80
2021/09/19 00:21:51;;;;;;;4.72;4.22;;;14.90;99.90;;;;;;6303444;22;20007;-80
2021/09/19 00:24:16;;;;;;;6.65;4.80;;;14.90;99.90;;;;;;6304325;22;20345;-80
2021/09/19 00:26:42;;;;;;;5.03;3.50;;;14.90;99.90;;;;;;6303741;22;20015;-80
2021/09/19 00:29:07;;;;;;;5.53;4.50;;;14.90;99.90;;;;;;6303496;22;20307;-79
2021/09/19 00:31:33;;;;;;;7.80;4.25;;;14.90;99.90;;;;;;6303535;22;20003;-79
2021/09/19 00:33:58;;;;;;;6.22;4.45;;;14.90;99.90;;;;;;6303966;22;19995;-79
2021/09/19 00:36:24;;;;;;;5.07;4.57;;;14.90;99.90;;;;;;6304169;22;19999;-80
2021/09/19 00:38:49;;;;;;;6.13;4.75;;;14.90;99.90;;;;;;6275244;22;20066;-79
2021/09/19 00:41:15;;;;;;;6.43;4.55;;;14.90;99.90;;;;;;6303550;22;19992;-79
2021/09/19 00:43:40;;;;;;;4.68;4.22;;;15.00;99.90;;;;;;6303901;22;20010;-79
2021/09/19 00:46:06;;;;;;;6.03;4.57;;;14.90;99.90;;;;;;6303987;22;19999;-79
2021/09/19 00:48:31;;;;;;;6.03;4.18;;;15.00;99.90;;;;;;6303114;22;20445;-80
2021/09/19 00:50:57;;;;;;;6.20;4.55;;;14.90;99.90;;;;;;6303516;22;20011;-79
2021/09/19 00:53:24;;;;;;;5.45;4.32;;;14.90;99.90;;;;;;6302276;22;20426;-79
2021/09/19 00:55:50;;;;;;;4.13;3.67;;;14.90;99.90;;;;;;6303910;22;20038;-80
2021/09/19 00:58:17;;;;;;;4.05;3.65;;;14.90;99.90;;;;;;6302429;22;20414;-79
2021/09/19 01:00:48;;;;;;;5.53;3.92;;;14.90;99.90;;;;;;6303546;22;20410;-80
2021/09/19 01:03:16;;;;;;;5.28;4.28;;;14.80;99.90;;;;;;6303651;22;19995;-80
2021/09/19 01:05:42;;;;;;;7.00;4.20;;;14.80;99.90;;;;;;6303756;22;20003;-80
2021/09/19 01:08:08;;;;;;;6.50;3.72;;;14.90;99.90;;;;;;6302586;22;20010;-80
2021/09/19 01:10:34;;;;;;;4.47;4.00;;;14.90;99.90;;;;;;6275943;22;20003;-80
2021/09/19 01:13:00;;;;;;;5.72;4.28;;;14.80;99.90;;;;;;6303508;22;20003;-79
2021/09/19 01:15:26;;;;;;;4.50;3.60;;;14.80;99.90;;;;;;6303264;22;20003;-79
2021/09/19 01:17:52;;;;;;;7.13;3.88;;;14.80;99.90;;;;;;6302414;22;20025;-81
2021/09/19 01:20:18;;;;;;;3.35;2.92;;;14.80;99.90;;;;;;6303110;22;20379;-80
2021/09/19 01:22:46;;;;;;;4.90;3.15;;;14.80;99.70;;;;;;6301742;22;20075;-81
2021/09/19 01:25:14;;;;;;;4.03;3.47;;;14.70;99.80;;;;;;6303723;22;20014;-79
2021/09/19 01:27:41;;;;;;;5.05;3.00;;;14.70;99.30;;;;;;6303201;22;20007;-79
2021/09/19 01:30:09;;;;;;;5.55;2.92;;;14.70;98.80;;;;;;6304001;22;20399;-79
2021/09/19 01:32:38;;;;;;;4.85;3.13;;;14.70;98.50;;;;;;6303103;22;20103;-80
2021/09/19 01:35:04;;;;;;;3.90;2.88;;;14.60;98.40;;;;;;6303852;22;20469;-80
2021/09/19 01:37:30;;;;;;;3.80;3.28;;;14.60;98.90;;;;;;6302922;22;20249;-80
2021/09/19 01:39:56;;;;;;;3.60;2.75;;;14.60;98.50;;;;;;6303971;22;20068;-80
2021/09/19 01:42:21;;;;;;;4.93;2.78;;;14.60;98.50;;;;;;6303080;22;20007;-82
2021/09/19 01:44:47;;;;;;;7.03;3.53;;;14.50;98.40;;;;;;6276006;22;20007;-80
2021/09/19 01:47:12;;;;;;;5.20;3.05;;;14.50;98.10;;;;;;6303719;22;20003;-79
2021/09/19 01:49:45;;;;;;;6.82;3.15;;;14.40;98.50;;;;;;6301514;22;20003;-81
2021/09/19 01:52:10;;;;;;;3.58;3.17;;;14.50;98.20;;;;;;6303518;22;19999;-80
2021/09/19 01:54:36;;;;;;;3.20;2.90;;;14.40;98.00;;;;;;6275973;22;20056;-79
2021/09/19 01:57:02;;;;;;;3.05;2.50;;;14.40;97.80;;;;;;6303385;22;20000;-80
2021/09/19 01:59:27;;;;;;;3.78;2.40;;;14.30;98.00;;;;;;6302331;22;20372;-80
2021/09/19 02:01:53;;;;;;;3.60;2.70;;;14.30;98.00;;;;;;6275544;22;20526;-80
2021/09/19 02:04:18;;;;;;;3.42;2.65;;;14.30;98.10;;;;;;6275747;22;20012;-81
2021/09/19 02:06:44;;;;;;;3.40;2.45;;;14.30;98.00;;;;;;6302488;22;20074;-80
2021/09/19 02:09:09;;;;;;;2.83;2.55;;;14.30;98.10;;;;;;6301559;22;20337;-81
2021/09/19 02:11:35;;;;;;;6.22;2.80;;;14.30;97.70;;;;;;6302742;22;20003;-80
2021/09/19 02:14:00;;;;;;;4.43;3.40;;;14.20;97.70;;;;;;6275358;22;20031;-81
2021/09/19 02:16:26;;;;;;;3.70;2.33;;;14.30;97.70;;;;;;6303272;22;20074;-80
2021/09/19 02:18:52;;;;;;;3.72;2.38;;;14.20;97.70;;;;;;6274650;22;20094;-80
2021/09/19 02:21:18;;;;;;;5.13;2.88;;;14.20;97.50;;;;;;6275800;22;20422;-80
2021/09/19 02:23:44;;;;;;;3.50;2.60;;;14.20;97.80;;;;;;6302398;22;20390;-80
2021/09/19 02:26:10;;;;;;;3.50;2.70;;;14.20;97.60;;;;;;6302521;22;20018;-81
2021/09/19 02:28:36;;;;;;;4.30;3.20;;;14.20;97.80;;;;;;6301728;22;19999;-81
2021/09/19 02:31:02;;;;;;;4.43;2.58;;;14.20;97.40;;;;;;6302490;22;20000;-82
2021/09/19 02:33:27;;;;;;;2.90;2.45;;;14.20;97.70;;;;;;6302851;22;20015;-82
2021/09/19 02:35:53;;;;;;;8.30;3.05;;;14.20;97.60;;;;;;6302932;22;20090;-81
2021/09/19 02:38:18;;;;;;;3.90;2.88;;;14.10;97.40;;;;;;6301719;22;20414;-82
2021/09/19 02:40:44;;;;;;;4.93;3.20;;;14.10;97.70;;;;;;6302754;22;19999;-81
2021/09/19 02:43:10;;;;;;;3.10;2.78;;;14.10;97.70;;;;;;6302288;22;20065;-82
2021/09/19 02:45:36;;;;;;;2.92;2.50;;;14.10;97.70;;;;;;6275446;22;20003;-81
2021/09/19 02:48:02;;;;;;;5.05;2.90;;;14.10;97.90;;;;;;6301406;22;20002;-82
2021/09/19 02:50:27;;;;;;;3.80;2.88;;;14.10;98.20;;;;;;6302284;22;20007;-80
2021/09/19 02:52:53;;;;;;;7.07;2.83;;;14.10;97.80;;;;;;6302479;22;20042;-81
2021/09/19 02:55:20;;;;;;;4.60;2.47;;;14.10;97.80;;;;;;6302487;22;20053;-81
2021/09/19 02:57:47;;;;;;;4.82;2.72;;;14.10;97.60;;;;;;6301621;22;20377;-81
2021/09/19 03:00:15;;;;;;;7.70;2.85;;;14.00;97.80;;;;;;6302542;22;20006;-81
2021/09/19 03:02:42;;;;;;;4.40;3.35;;;14.00;97.80;;;;;;6301832;22;20091;-80
2021/09/19 03:05:08;;;;;;;3.42;2.80;;;14.10;98.00;;;;;;6302303;22;20019;-79
2021/09/19 03:07:34;;;;;;;3.83;2.88;;;14.10;97.80;;;;;;6302669;22;20003;-80
2021/09/19 03:09:59;;;;;;;3.90;3.00;;;14.00;97.60;;;;;;6301676;22;20412;-80
2021/09/19 03:12:25;;;;;;;5.15;3.08;;;14.00;98.00;;;;;;6301755;22;20014;-80
2021/09/19 03:14:50;;;;;;;3.92;2.97;;;14.00;97.80;;;;;;6302298;22;20456;-81
2021/09/19 03:17:16;;;;;;;4.38;2.80;;;14.00;98.10;;;;;;6302693;22;20299;-80
2021/09/19 03:19:41;;;;;;;8.20;2.05;;;14.00;98.20;;;;;;6301177;22;20007;-81
2021/09/19 03:22:07;;;;;;;5.53;3.60;;;14.00;97.90;;;;;;6302485;22;20011;-80
2021/09/19 03:24:32;;;;;;;8.45;4.05;;;14.00;97.90;;;;;;6301928;22;20014;-81
2021/09/19 03:26:58;;;;;;;3.38;2.72;;;14.00;97.90;;;;;;6302673;22;20325;-81
2021/09/19 03:29:23;;;;;;;3.90;2.90;;;14.00;98.00;;;;;;6301606;22;20002;-81
2021/09/19 03:31:49;;;;;;;4.55;3.63;;;13.90;98.00;;;;;;6302340;22;20007;-81
2021/09/19 03:34:14;;;;;;;7.13;3.88;;;13.90;97.90;;;;;;6302202;22;20000;-81
2021/09/19 03:36:40;;;;;;;6.82;2.85;;;13.90;98.10;;;;;;6302103;22;20006;-81
2021/09/19 03:39:06;;;;;;;4.15;3.03;;;13.90;98.10;;;;;;6302010;22;20406;-80
2021/09/19 03:41:32;;;;;;;4.40;3.53;;;13.80;98.10;;;;;;6274286;22;20000;-81
2021/09/19 03:43:59;;;;;;;7.05;3.67;;;13.80;98.00;;;;;;6275005;22;20011;-80
2021/09/19 03:46:26;;;;;;;4.25;2.70;;;13.70;98.00;;;;;;6302342;22;19999;-81
2021/09/19 03:48:52;;;;;;;5.80;3.17;;;13.60;98.10;;;;;;6300859;22;19999;-81
2021/09/19 03:51:17;;;;;;;6.20;3.40;;;13.60;98.20;;;;;;6302520;22;20457;-81
2021/09/19 03:53:44;;;;;;;4.22;2.80;;;13.60;98.30;;;;;;6301606;22;20414;-82
2021/09/19 03:56:09;;;;;;;4.35;3.10;;;13.50;98.30;;;;;;6303169;22;19991;-80
2021/09/19 03:58:35;;;;;;;6.20;3.42;;;13.40;98.40;;;;;;6301822;22;20011;-82
2021/09/19 04:01:00;;;;;;;6.28;3.42;;;13.40;98.40;;;;;;6274845;22;20011;-82
2021/09/19 04:03:26;;;;;;;6.40;3.45;;;13.30;98.40;;;;;;6302782;22;20136;-82
2021/09/19 04:05:51;;;;;;;6.22;2.97;;;13.30;98.40;;;;;;6302070;22;20011;-82
2021/09/19 04:08:17;;;;;;;5.38;3.53;;;13.30;98.40;;;;;;6322044;22;19992;-82
2021/09/19 04:10:42;;;;;;;6.28;3.72;;;13.20;98.50;;;;;;6317441;22;20007;-81
2021/09/19 04:13:08;;;;;;;3.85;2.95;;;13.10;98.60;;;;;;6303541;22;19999;-81
2021/09/19 04:15:33;;;;;;;5.10;3.40;;;13.10;98.70;;;;;;6304479;22;20009;-81
2021/09/19 04:17:59;;;;;;;6.00;3.60;;;13.00;98.80;;;;;;6303220;22;20440;-81
2021/09/19 04:20:24;;;;;;;3.80;3.38;;;13.00;99.00;;;;;;6304139;22;20071;-81
2021/09/19 04:22:50;;;;;;;7.55;3.67;;;13.00;99.20;;;;;;6303959;22;20003;-81
2021/09/19 04:25:15;;;;;;;6.68;4.10;;;12.90;99.30;;;;;;6276768;22;20007;-80
2021/09/19 04:27:41;;;;;;;3.63;3.20;;;12.90;99.50;;;;;;6303423;22;20086;-81
2021/09/19 04:30:08;;;;;;;5.05;3.85;;;12.90;99.70;;;;;;6303847;22;20307;-81
2021/09/19 04:32:35;;;;;;;8.10;3.58;;;12.90;99.90;;;;;;6303732;22;20000;-81
2021/09/19 04:35:00;;;;;;;6.38;3.95;;;12.90;99.90;;;;;;6275989;22;20007;-81
2021/09/19 04:37:27;;;;;;;10.02;3.92;;;12.80;99.90;;;;;;6304042;22;20003;-81
2021/09/19 04:39:52;;;;;;;5.07;4.22;;;12.80;99.90;;;;;;6303007;22;20004;-81
2021/09/19 04:42:18;;;;;;;4.90;3.78;;;12.90;99.90;;;;;;6303410;22;20078;-80
2021/09/19 04:44:43;;;;;;;4.68;3.42;;;12.90;99.90;;;;;;6303000;22;20052;-82
2021/09/19 04:47:09;;;;;;;7.72;3.65;;;12.90;99.90;;;;;;6301684;22;20060;-81
2021/09/19 04:49:35;;;;;;;8.40;3.83;;;12.90;99.90;;;;;;6302787;22;19999;-81
2021/09/19 04:52:00;;;;;;;4.85;3.70;;;13.00;99.90;;;;;;6303715;22;20026;-81
2021/09/19 04:54:27;;;;;;;5.78;4.50;;;13.00;99.90;;;;;;6303589;22;20465;-81
2021/09/19 04:56:53;;;;;;;4.30;3.90;;;13.00;99.90;;;;;;6276030;22;20015;-81
2021/09/19 04:59:19;;;;;;;5.82;3.95;;;12.90;99.90;;;;;;6275131;22;19999;-82
2021/09/19 05:01:44;;;;;;;4.07;3.67;;;13.00;99.90;;;;;;6302876;22;20064;-82
2021/09/19 05:04:10;;;;;;;8.38;4.53;;;13.00;99.90;;;;;;6303467;22;20011;-81
2021/09/19 05:06:35;;;;;;;5.05;3.85;;;13.00;99.90;;;;;;6303603;22;20066;-82
2021/09/19 05:09:01;;;;;;;5.80;3.90;;;13.00;99.90;;;;;;6302805;22;19995;-81
2021/09/19 05:11:26;;;;;;;5.78;3.67;;;13.00;99.90;;;;;;6302587;22;20006;-81
2021/09/19 05:13:52;;;;;;;6.68;4.07;;;13.00;99.90;;;;;;6303390;22;20326;-81
2021/09/19 05:16:18;;;;;;;4.43;3.65;;;13.10;99.90;;;;;;6275789;22;20017;-80
2021/09/19 05:18:43;;;;;;;5.63;3.97;;;13.10;99.90;;;;;;6275048;22;20033;-80
2021/09/19 05:21:09;;;;;;;5.20;3.88;;;13.10;99.90;;;;;;6302665;22;20022;-81
2021/09/19 05:23:34;;;;;;;4.13;3.47;;;13.10;99.90;;;;;;6302946;22;20038;-81
2021/09/19 05:26:00;;;;;;;6.25;3.63;;;13.20;99.90;;;;;;6302918;22;20042;-81
2021/09/19 05:28:25;;;;;;;5.30;3.70;;;13.20;99.90;;;;;;6302116;22;20578;-81
2021/09/19 05:30:51;;;;;;;5.60;3.60;;;13.20;99.90;;;;;;6275454;22;20010;-81
2021/09/19 05:33:18;;;;;;;7.43;3.90;;;13.20;99.90;;;;;;6303670;22;20071;-80
2021/09/19 05:35:43;;;;;;;4.40;3.53;;;13.30;99.90;;;;;;6302626;22;20444;-81
2021/09/19 05:38:09;;;;;;;4.20;3.80;;;13.30;99.90;;;;;;6302742;22;20075;-82
2021/09/19 05:40:35;;;;;;;8.27;3.92;;;13.40;99.90;;;;;;6302705;22;20018;-81
2021/09/19 05:43:04;;;;;;;4.47;3.28;;;13.40;99.60;;;;;;6303307;22;20056;-80
2021/09/19 05:45:33;;;;;;;7.28;3.85;;;13.40;99.10;;;;;;6303235;22;20063;-81
2021/09/19 05:47:59;;;;;;;6.28;3.63;;;13.40;98.90;;;;;;6302356;22;20010;-81
2021/09/19 05:50:25;;;;;;;4.30;3.50;;;13.50;98.80;;;;;;6303184;22;20007;-80
2021/09/19 05:52:51;;;;;;;3.88;3.30;;;13.50;98.80;;;;;;6302981;22;20009;-80
2021/09/19 05:55:16;;;;;;;4.13;3.72;;;13.50;98.90;;;;;;6302644;22;20053;-81
2021/09/19 05:57:43;;;;;;;3.30;3.00;;;13.50;98.60;;;;;;6302333;22;20011;-81
2021/09/19 06:00:09;;;;;;;4.30;3.85;;;13.60;98.50;;;;;;6275874;22;20003;-82
2021/09/19 06:02:34;;;;;;;3.60;3.17;;;13.60;98.30;;;;;;6304062;22;19999;-82
2021/09/19 06:05:00;;;;;;;6.70;3.47;;;13.60;98.40;;;;;;6276573;22;20018;-81
2021/09/19 06:07:25;;;;;;;3.45;3.13;;;13.70;98.00;;;;;;6305516;22;20009;-82
2021/09/19 06:09:52;;;;;;;3.85;3.30;;;13.70;98.10;;;;;;6304282;22;19999;-82
2021/09/19 06:12:17;;;;;;;5.05;3.17;;;13.70;98.00;;;;;;6303243;22;19999;-81
2021/09/19 06:14:43;;;;;;;7.18;3.55;;;13.70;98.10;;;;;;6303154;22;20010;-81
2021/09/19 06:17:08;;;;;;;5.90;3.05;;;13.80;97.70;;;;;;6275572;22;20486;-82
2021/09/19 06:19:34;;;;;;;3.28;2.60;;;13.70;97.20;;;;;;6275504;22;19999;-81
2021/09/19 06:22:01;;;;;;;3.30;2.47;;;13.80;95.90;;;;;;6303220;22;20003;-80
2021/09/19 06:24:28;;;;;;;7.10;3.33;;;13.80;95.70;;;;;;6305022;22;20010;-82
2021/09/19 06:26:58;;;;;;;4.07;2.20;;;13.80;96.70;;;;;;6303808;22;20003;-81
2021/09/19 06:29:23;;;;;;;3.97;2.58;;;13.80;95.50;;;;;;6275230;22;20366;-81
2021/09/19 06:31:49;;;;;;;5.97;3.05;;;13.80;95.80;;;;;;6303052;22;20014;-83
2021/09/19 06:34:14;;;;;;;3.25;2.42;;;13.90;96.30;;;;;;6303147;22;20068;-81
2021/09/19 06:36:40;;;;;;;7.63;2.78;;;13.90;95.20;;;;;;6303001;22;20066;-82
2021/09/19 06:39:06;;;;;;;3.05;2.60;;;13.90;95.30;;;;;;6301496;22;19995;-82
2021/09/19 06:41:31;;;;;;;3.28;2.60;;;14.00;94.60;;;;;;6302129;22;20010;-82
2021/09/19 06:43:57;;;;;;;2.85;2.30;;;14.00;94.90;;;;;;6302513;22;20013;-82
2021/09/19 06:46:26;;;;;;;2.78;2.40;;;14.00;95.10;;;;;;6302246;22;20031;-82
2021/09/19 06:48:52;;;;;;;4.75;3.40;;;14.00;95.40;;;;;;6274868;22;20336;-80
2021/09/19 06:51:18;;;;;;;4.30;3.20;;;14.00;95.20;;;;;;6274408;22;20086;-81
2021/09/19 06:53:43;;;;;;;4.43;2.83;;;14.00;95.40;;;;;;6302758;22;20003;-82
2021/09/19 06:56:09;;;;;;;3.25;2.45;;;13.90;95.60;;;;;;6302370;22;20116;-81
2021/09/19 06:58:34;;;;;;;3.67;2.80;;;14.00;95.70;;;;;;6301619;22;20014;-81
2021/09/19 07:01:00;;;;;;;10.55;2.78;;;14.00;95.30;;;;;;6302441;22;20000;-81
2021/09/19 07:03:25;;;;;;;4.18;2.78;;;13.90;95.70;;;;;;6302440;22;19996;-81
2021/09/19 07:05:50;;;;;;;3.10;2.53;;;14.00;95.20;;;;;;6302640;22;20299;-81
2021/09/19 07:08:16;;;;;;;5.75;3.17;;;14.00;94.70;;;;;;6301558;22;20291;-81
2021/09/19 07:10:41;;;;;;;6.57;2.80;;;13.90;95.00;;;;;;6302209;22;20000;-80
2021/09/19 07:13:07;;;;;;;4.75;2.42;;;13.90;95.30;;;;;;6302889;22;20044;-81
2021/09/19 07:15:32;;;;;;;3.38;2.28;;;13.90;95.00;;;;;;6302352;22;20007;-81
2021/09/19 07:17:58;;;;;;;4.03;2.60;;;14.00;95.20;;;;;;6300866;22;20007;-81
2021/09/19 07:20:23;;;;;;;3.40;2.28;;;14.00;95.20;;;;;;6302775;22;20050;-81
2021/09/19 07:22:49;;;;;;;3.75;2.50;;;14.00;95.10;;;;;;6304206;22;20764;-80
2021/09/19 07:25:15;;;;;;;3.75;2.90;;;14.00;94.70;;;;;;6302490;22;20011;-81
2021/09/19 07:27:42;;;;;;;3.35;2.63;;;13.90;94.90;;;;;;6273905;22;20011;-81
2021/09/19 07:30:09;;;;;;;3.72;2.53;;;13.90;94.70;;;;;;6302707;22;20053;-81
2021/09/19 07:32:35;;;;;;;4.07;2.60;;;14.00;94.90;;;;;;6274439;22;20491;-82
2021/09/19 07:35:05;;;;;;;4.82;2.47;;;13.90;95.20;;;;;;6302566;22;20052;-81
2021/09/19 07:37:31;;;;;;;3.15;2.35;;;14.00;94.60;;;;;;6302209;22;20031;-82
2021/09/19 07:39:57;;;;;;;3.25;2.95;;;14.00;94.80;;;;;;6302043;22;19995;-81
2021/09/19 07:42:23;;;;;;;5.22;2.75;;;14.10;94.50;;;;;;6302577;22;20007;-80
2021/09/19 07:44:49;;;;;;;5.93;4.03;;;14.10;94.20;;;;;;6302474;22;20042;-82
2021/09/19 07:47:15;;;;;;;4.15;3.15;;;14.10;94.00;;;;;;6275445;22;20003;-82
2021/09/19 07:49:41;;;;;;;4.97;3.10;;;14.20;94.00;;;;;;6303486;22;20473;-81
2021/09/19 07:52:07;;;;;;;4.50;3.10;;;14.20;93.70;;;;;;6276252;22;20007;-81
2021/09/19 07:54:33;;;;;;;3.28;2.55;;;14.30;93.00;;;;;;6304826;22;20010;-82
2021/09/19 07:56:59;;;;;;;4.38;2.58;;;14.20;92.90;;;;;;6303869;22;19996;-80
2021/09/19 07:59:24;;;;;;;3.63;2.53;;;14.20;92.90;;;;;;6303842;22;20107;-81
2021/09/19 08:01:50;;;;;;;5.28;2.70;;;14.20;93.20;;;;;;6303911;22;20000;-82
2021/09/19 08:04:15;;;;;;;7.85;2.83;;;14.20;93.30;;;;;;6304321;22;20413;-83
2021/09/19 08:06:41;;;;;;;4.97;2.58;;;14.20;93.30;;;;;;6303686;22;20299;-82
2021/09/19 08:09:06;;;;;;;5.70;2.83;;;14.30;93.40;;;;;;6303337;22;20000;-82
2021/09/19 08:11:32;;;;;;;9.15;3.05;;;14.30;93.30;;;;;;6303770;22;20010;-81
2021/09/19 08:14:05;;;;;;;3.63;2.55;;;14.40;93.00;;;;;;6303126;22;20006;-81
2021/09/19 08:16:34;;;;;;;5.20;2.90;;;14.40;92.20;;;;;;6304310;22;19998;-83
2021/09/19 08:18:59;;;;;;;3.35;2.55;;;14.50;93.00;;;;;;6303055;22;20325;-81
2021/09/19 08:21:25;;;;;;;6.32;2.58;;;14.50;92.80;;;;;;6275913;22;20026;-81
2021/09/19 08:23:50;;;;;;;8.60;3.22;;;14.50;92.10;;;;;;6304047;22;20007;-81
2021/09/19 08:26:15;;;;;;;5.38;3.10;;;14.50;92.70;;;;;;6302240;22;20018;-80
2021/09/19 08:28:41;;;;;;;3.25;2.60;;;14.50;92.40;;;;;;6302941;22;20007;-79
2021/09/19 08:31:06;;;;;;;5.38;2.22;;;14.60;92.10;;;;;;6303726;22;20007;-81
2021/09/19 08:33:32;;;;;;;2.80;2.22;;;14.60;92.20;;;;;;6303527;22;20011;-80
2021/09/19 08:35:59;;;;;;;4.53;2.30;;;14.60;92.80;;;;;;6304146;22;20350;-82
2021/09/19 08:38:25;;;;;;;2.97;2.67;;;14.60;92.80;;;;;;6302995;22;19999;-81
2021/09/19 08:40:53;;;;;;;6.57;2.50;;;14.60;93.00;;;;;;6303851;22;20014;-81
2021/09/19 08:43:19;;;;;;;2.40;2.20;;;14.70;92.20;;;;;;6303744;22;20085;-82
2021/09/19 08:45:48;;;;;;;2.65;2.35;;;14.70;92.20;;;;;;6303659;22;20050;-82
2021/09/19 08:48:20;;;;;;;3.53;2.45;;;14.80;92.10;;;;;;6302778;22;20696;-81
2021/09/19 08:50:50;;;;;;;4.75;2.85;;;14.80;91.40;;;;;;6302800;22;20003;-81
2021/09/19 08:53:16;;;;;;;2.20;2.00;;;14.70;92.20;;;;;;6303646;22;19995;-81
2021/09/19 08:55:45;;;;;;;3.67;1.98;;;14.70;91.70;;;;;;6303727;22;20011;-81
2021/09/19 08:58:11;;;;;;;2.67;2.13;;;14.70;92.40;;;;;;6302831;22;20061;-82
2021/09/19 09:00:39;;;;;;;6.22;2.38;;;14.70;93.00;;;;;;6303769;22;20054;-82
2021/09/19 09:03:13;;;;;;;2.78;1.95;;;14.80;91.70;;;;;;6303031;22;20007;-81
2021/09/19 09:05:39;;;;;;;2.70;2.28;;;14.80;92.20;;;;;;6303349;22;20013;-80
2021/09/19 09:08:07;;;;;;;2.97;2.20;;;14.80;91.60;;;;;;6274731;22;20434;-82
2021/09/19 09:10:37;;;;;;;6.05;2.17;;;14.80;91.30;;;;;;6303139;22;20452;-81
2021/09/19 09:13:23;;;;;;;2.78;2.17;;;14.80;91.00;;;;;;6276204;22;20038;-81
2021/09/19 09:15:51;;;;;;;4.40;2.50;;;14.90;90.80;;;;;;6303836;22;20084;-81
2021/09/19 09:18:40;;;;;;;3.22;1.80;;;14.90;91.10;;;;;;6301140;22;20076;-81
2021/09/19 09:21:10;;;;;;;8.50;2.30;;;14.90;91.10;;;;;;6275771;22;20481;-82
2021/09/19 09:23:41;;;;;;;3.70;2.13;;;15.00;91.70;;;;;;6275646;22;20000;-82
2021/09/19 09:26:11;;;;;;;2.10;1.90;;;15.10;91.10;;;;;;6275658;22;20023;-81
2021/09/19 09:28:56;;;;;;;3.85;2.28;;;15.10;91.30;;;;;;6302761;22;19995;-83
2021/09/19 09:31:41;;;;;;;3.40;2.47;;;15.30;91.90;;;;;;6303062;22;20074;-82
2021/09/19 09:34:12;;;;;;;3.38;2.00;;;15.30;89.90;;;;;;6303494;22;20128;-82
2021/09/19 09:36:52;;;;;;;2.50;1.83;;;15.40;90.30;;;;;;6275939;22;20132;-82
2021/09/19 09:39:34;;;;;;;2.80;1.92;;;15.40;89.50;;;;;;6302222;22;20007;-80
2021/09/19 09:42:08;;;;;;;2.47;2.25;;;15.40;87.40;;;;;;6275586;22;20006;-82
2021/09/19 09:44:44;;;;;;;2.15;1.55;;;15.50;89.20;;;;;;6303391;22;20007;-82
2021/09/19 09:47:21;;;;;;;2.40;1.88;;;15.50;88.60;;;;;;6303125;22;20321;-81
2021/09/19 09:50:00;;;;;;;3.92;1.95;;;15.50;88.80;;;;;;6274571;22;20023;-83
2021/09/19 09:52:28;;;;;;;2.33;1.75;;;15.50;89.40;;;;;;6275686;22;20068;-81
2021/09/19 09:55:03;;;;;;;2.45;1.85;;;15.40;89.70;;;;;;6303331;22;20011;-81
2021/09/19 09:57:35;;;;;;;3.40;2.28;;;15.50;90.50;;;;;;6302476;22;20069;-81
2021/09/19 10:00:06;;;;;;;7.30;2.20;;;15.40;87.60;;;;;;6275640;22;20010;-81
2021/09/19 10:02:33;;;;;;;3.72;1.73;;;15.40;88.10;;;;;;6302762;22;20325;-82
2021/09/19 10:04:59;;;;;;;4.35;2.10;;;15.40;89.50;;;;;;6303162;22;20003;-83
2021/09/19 10:07:25;;;;;;;4.28;1.95;;;15.40;90.50;;;;;;6302713;22;20003;-82
2021/09/19 10:09:51;;;;;;;2.03;1.83;;;15.40;89.90;;;;;;6302014;22;20007;-83
2021/09/19 10:12:20;;;;;;;5.20;2.08;;;15.50;89.00;;;;;;6300976;22;19999;-82
2021/09/19 10:14:50;;;;;;;2.40;1.80;;;15.50;89.40;;;;;;6302576;22;20003;-82
2021/09/19 10:17:17;;;;;;;2.28;2.03;;;15.50;87.50;;;;;;6303193;22;20069;-82
2021/09/19 10:19:43;;;;;;;3.25;2.15;;;15.40;90.00;;;;;;6301508;22;20010;-82
2021/09/19 10:22:11;;;;;;;2.70;1.88;;;15.40;90.00;;;;;;6302457;22;20074;-82
2021/09/19 10:24:37;;;;;;;2.30;2.10;;;15.40;90.20;;;;;;6303043;22;19999;-82
2021/09/19 10:27:23;;;;;;;3.85;2.03;;;15.40;89.00;;;;;;6303208;22;20333;-82
2021/09/19 10:30:06;;;;;;;2.10;1.90;;;15.40;89.60;;;;;;6274615;22;20003;-82
2021/09/19 10:32:33;;;;;;;2.38;1.95;;;15.40;90.20;;;;;;6300695;22;20322;-81
2021/09/19 10:34:58;;;;;;;2.10;1.90;;;15.40;89.80;;;;;;6275366;22;20007;-82
2021/09/19 10:37:47;;;;;;;2.42;1.75;;;15.40;90.00;;;;;;6301252;22;20002;-82
2021/09/19 10:40:12;;;;;;;2.60;1.85;;;15.50;90.00;;;;;;6303226;22;20026;-81
2021/09/19 10:42:40;;;;;;;2.30;1.65;;;15.50;87.20;;;;;;6302710;22;19999;-81
2021/09/19 10:45:14;;;;;;;2.28;1.75;;;15.50;90.00;;;;;;6275423;22;20015;-80
2021/09/19 10:47:53;;;;;;;3.30;2.05;;;15.50;87.40;;;;;;6275225;22;20417;-82
2021/09/19 10:50:28;;;;;;;1.70;1.48;;;15.40;89.20;;;;;;6276106;22;19995;-80
2021/09/19 10:53:02;;;;;;;2.40;1.90;;;15.40;89.80;;;;;;6303480;22;20706;-81
2021/09/19 10:55:27;;;;;;;3.47;1.50;;;15.40;87.20;;;;;;6275136;22;20007;-81
2021/09/19 10:57:59;;;;;;;5.43;1.75;;;15.50;88.00;;;;;;6302481;22;20708;-82
2021/09/19 11:00:26;;;;;;;3.70;1.90;;;15.50;87.90;;;;;;6303859;22;20025;-81
2021/09/19 11:03:09;;;;;;;4.80;1.80;;;15.60;87.10;;;;;;6307648;22;19996;-81
2021/09/19 11:05:49;;;;;;;2.28;1.50;;;15.70;87.80;;;;;;6323433;22;20021;-81
2021/09/19 11:08:19;;;;;;;3.88;2.28;;;15.70;85.60;;;;;;6320840;22;20002;-80
2021/09/19 11:10:44;;;;;;;3.15;2.10;;;15.80;86.40;;;;;;6307796;22;19995;-81
2021/09/19 11:13:26;;;;;;;3.13;1.70;;;15.90;88.20;;;;;;6302306;22;20429;-81
2021/09/19 11:16:04;;;;;;;3.55;1.90;;;15.90;87.80;;;;;;6275738;22;20034;-82
2021/09/19 11:18:30;;;;;;;2.00;1.58;;;16.00;84.60;;;;;;6301787;22;20022;-81
2021/09/19 11:21:14;;;;;;;2.13;1.92;;;16.00;85.50;;;;;;6300640;22;20249;-82
2021/09/19 11:23:52;;;;;;;4.03;2.08;;;16.10;87.10;;;;;;6303958;22;20059;-82
2021/09/19 11:26:31;;;;;;;2.50;1.70;;;16.10;86.00;;;;;;6304415;22;20441;-82
2021/09/19 11:29:00;;;;;;;1.88;1.55;;;16.30;85.20;;;;;;6304056;22;20098;-80
2021/09/19 11:31:26;;;;;;;3.58;1.88;;;16.30;82.50;;;;;;6304099;22;20042;-81
2021/09/19 11:33:52;;;;;;;2.50;1.58;;;16.30;82.10;;;;;;6304661;22;20064;-82
2021/09/19 11:36:20;;;;;;;2.55;1.83;;;16.20;84.70;;;;;;6304385;22;20098;-82
2021/09/19 11:38:48;;;;;;;2.55;1.70;;;16.30;83.40;;;;;;6275868;22;20425;-81
2021/09/19 11:41:14;;;;;;;3.67;1.88;;;16.30;84.00;;;;;;6304419;22;20002;-81
2021/09/19 11:43:41;;;;;;;2.13;1.92;;;16.30;82.20;;;;;;6276571;22;20573;-82
2021/09/19 11:46:18;;;;;;;3.20;2.13;;;16.20;82.00;;;;;;6304607;22;20011;-83
2021/09/19 11:48:45;;;;;;;2.47;2.03;;;16.10;83.10;;;;;;6302677;22;20049;-81
2021/09/19 11:51:16;;;;;;;3.08;1.77;;;16.00;84.40;;;;;;6303926;22;20072;-81
2021/09/19 11:53:48;;;;;;;2.53;1.80;;;16.00;84.50;;;;;;6304217;22;20080;-83
2021/09/19 11:56:15;;;;;;;3.83;1.95;;;16.00;86.40;;;;;;6304219;22;19999;-82
2021/09/19 11:58:41;;;;;;;2.83;1.90;;;16.00;87.60;;;;;;6276065;22;20003;-83
2021/09/19 12:01:06;;;;;;;2.95;1.92;;;16.00;85.20;;;;;;6276287;22;19996;-81
2021/09/19 12:03:33;;;;;;;2.15;1.92;;;16.00;85.90;;;;;;6304779;22;20003;-81
2021/09/19 12:06:02;;;;;;;3.08;2.10;;;16.00;85.20;;;;;;6276338;22;20019;-82
2021/09/19 12:08:30;;;;;;;4.28;2.20;;;15.90;86.10;;;;;;6303362;22;20007;-81
2021/09/19 12:10:57;;;;;;;3.90;2.05;;;15.90;85.50;;;;;;6303773;22;19999;-81
2021/09/19 12:13:33;;;;;;;2.67;1.88;;;15.80;87.30;;;;;;6304214;22;20410;-81
2021/09/19 12:16:06;;;;;;;2.90;2.25;;;15.90;86.70;;;;;;6276809;22;20011;-82
2021/09/19 12:18:33;;;;;;;4.47;2.22;;;15.90;85.40;;;;;;6303509;22;20533;-81
2021/09/19 12:21:02;;;;;;;3.08;2.08;;;15.90;84.70;;;;;;6303547;22;19995;-81
2021/09/19 12:23:40;;;;;;;2.15;1.50;;;15.90;85.00;;;;;;6304365;22;19999;-81
2021/09/19 12:26:05;;;;;;;3.58;1.90;;;15.90;84.10;;;;;;6275759;22;20022;-81
2021/09/19 12:28:33;;;;;;;3.53;1.85;;;16.00;85.80;;;;;;6275692;22;19991;-82
2021/09/19 12:31:00;;;;;;;2.08;1.80;;;16.00;85.80;;;;;;6303482;22;20053;-82
2021/09/19 12:33:26;;;;;;;2.92;1.80;;;16.00;83.20;;;;;;6276734;22;19999;-81
2021/09/19 12:35:52;;;;;;;2.72;1.88;;;16.10;84.60;;;;;;6303894;22;20007;-81
2021/09/19 12:38:19;;;;;;;4.00;2.35;;;16.20;84.90;;;;;;6303627;22;20057;-82
2021/09/19 12:40:45;;;;;;;6.22;1.50;;;16.20;85.30;;;;;;6303916;22;20074;-82
2021/09/19 12:43:15;;;;;;;3.22;2.20;;;16.30;84.10;;;;;;6276706;22;20018;-82
2021/09/19 12:45:52;;;;;;;3.30;2.00;;;16.40;84.10;;;;;;6276366;22;20011;-82
2021/09/19 12:48:27;;;;;;;4.50;2.00;;;16.40;84.80;;;;;;6275918;22;20011;-81
2021/09/19 12:50:59;;;;;;;3.75;1.95;;;16.50;84.40;;;;;;6303696;22;20652;-81